Terminal Aerodrome Forecast
Issued by NWS Charleston, WV

Current Version | Previous Version | Text Only | Print | Product List | Glossary Off
Versions: 1 2 3 4 5 6 7 8 9 10 11 12 13 14 15 16 17 18 19 20 21 22 23 24 25 26 27 28

997
FTUS41 KRLX 181547 AAB
TAFBKW
TAF AMD
KBKW 181547Z 1816/1912 29010G16KT P6SM SCT008 BKN015 OVC035
     FM182300 30006KT P6SM SCT007
     FM190500 VRB03KT P6SM SCT010
     FM191000 00000KT P6SM SCT150=

USA.gov is the U.S. government's official web portal to all federal, state and local government web resources and services.